Time;durP1;ratioP1;P1;durP2;ratioP2;P2;SDS_P1;SDS_P2;PMS_P1;PMS_P2;Temp;Humidity;BMP_temperature;BMP_pressure;BME280_temperature;BME280_humidity;BME280_pressure;Samples;Min_cycle;Max_cycle;Signal;HPM_P1;HPM_P2
2022/04/27 00:00:28;;;;;;;15.10;13.60;;;;;;;;;;5073604;28;20444;-75
2022/04/27 00:02:55;;;;;;;15.73;14.10;;;;;;;;;;5071354;28;20456;-76
2022/04/27 00:05:23;;;;;;;14.90;13.43;;;;;;;;;;5071876;28;20454;-75
2022/04/27 00:07:50;;;;;;;17.10;15.30;;;;;;;;;;5090457;28;20486;-76
2022/04/27 00:10:18;;;;;;;15.70;13.83;;;;;;;;;;5095421;28;20455;-75
2022/04/27 00:12:45;;;;;;;16.60;14.90;;;;;;;;;;5091891;28;20440;-77
2022/04/27 00:15:14;;;;;;;17.40;15.70;;;;;;;;;;5091620;28;20825;-77
2022/04/27 00:17:41;;;;;;;15.60;14.10;;;;;;;;;;5091929;28;20439;-76
2022/04/27 00:20:09;;;;;;;16.60;14.80;;;;;;;;;;5092131;28;20443;-74
2022/04/27 00:22:37;;;;;;;17.40;14.97;;;;;;;;;;5093427;28;20521;-77
2022/04/27 00:25:05;;;;;;;17.30;15.60;;;;;;;;;;5095887;28;20523;-75
2022/04/27 00:27:32;;;;;;;21.13;17.13;;;;;;;;;;5095439;28;20489;-76
2022/04/27 00:29:59;;;;;;;18.50;16.57;;;;;;;;;;5096637;28;20432;-75
2022/04/27 00:32:28;;;;;;;19.60;17.27;;;;;;;;;;5092716;28;20454;-75
2022/04/27 00:34:55;;;;;;;19.43;17.40;;;;;;;;;;5091526;28;20443;-77
2022/04/27 00:37:22;;;;;;;19.17;17.00;;;;;;;;;;5091639;28;20465;-76
2022/04/27 00:39:49;;;;;;;22.93;18.83;;;;;;;;;;5091445;28;20444;-75
2022/04/27 00:42:17;;;;;;;20.77;18.57;;;;;;;;;;5091248;28;20465;-76
2022/04/27 00:44:45;;;;;;;20.57;17.97;;;;;;;;;;5090801;28;20462;-76
2022/04/27 00:47:12;;;;;;;20.47;17.87;;;;;;;;;;5091216;28;20545;-75
2022/04/27 00:49:43;;;;;;;19.87;17.77;;;;;;;;;;5091400;28;20433;-74
2022/04/27 00:52:12;;;;;;;19.70;17.27;;;;;;;;;;5091419;28;20454;-76
2022/04/27 00:54:39;;;;;;;20.80;17.90;;;;;;;;;;5090830;28;20443;-74
2022/04/27 00:57:07;;;;;;;19.43;17.27;;;;;;;;;;5091052;28;20827;-75
2022/04/27 00:59:34;;;;;;;21.80;19.40;;;;;;;;;;5091349;28;20447;-77
2022/04/27 01:02:01;;;;;;;23.10;18.07;;;;;;;;;;5090523;28;20734;-75
2022/04/27 01:04:28;;;;;;;23.27;17.90;;;;;;;;;;5090767;28;20443;-76
2022/04/27 01:06:56;;;;;;;21.20;18.50;;;;;;;;;;5091208;28;20505;-76
2022/04/27 01:09:24;;;;;;;20.60;18.40;;;;;;;;;;5090633;28;20463;-75
2022/04/27 01:11:52;;;;;;;21.90;19.60;;;;;;;;;;5090831;28;20450;-76
2022/04/27 01:14:19;;;;;;;21.70;19.37;;;;;;;;;;5090561;28;20451;-74
2022/04/27 01:16:52;;;;;;;26.10;21.50;;;;;;;;;;5091048;28;20570;-75
2022/04/27 01:19:19;;;;;;;25.43;19.43;;;;;;;;;;5091123;28;20509;-74
2022/04/27 01:21:49;;;;;;;28.40;20.90;;;;;;;;;;5091222;28;20792;-74
2022/04/27 01:24:19;;;;;;;23.17;19.70;;;;;;;;;;5091165;28;20539;-75
2022/04/27 01:26:47;;;;;;;28.07;20.50;;;;;;;;;;5091251;28;20473;-73
2022/04/27 01:29:16;;;;;;;24.07;19.93;;;;;;;;;;5090797;28;20485;-73
2022/04/27 01:31:43;;;;;;;22.87;19.00;;;;;;;;;;5090682;28;21026;-75
2022/04/27 01:34:10;;;;;;;23.20;20.07;;;;;;;;;;5090735;28;20879;-75
2022/04/27 01:36:38;;;;;;;25.87;20.63;;;;;;;;;;5089951;28;20470;-76
2022/04/27 01:39:07;;;;;;;25.63;21.23;;;;;;;;;;5090201;28;20440;-75
2022/04/27 01:41:34;;;;;;;25.20;21.70;;;;;;;;;;5090262;28;20451;-74
2022/04/27 01:44:01;;;;;;;26.23;21.10;;;;;;;;;;5090078;28;20472;-76
2022/04/27 01:46:28;;;;;;;27.43;21.20;;;;;;;;;;5089891;28;20978;-75
2022/04/27 01:48:56;;;;;;;26.53;21.43;;;;;;;;;;5090016;28;20508;-75
2022/04/27 01:54:14;;;;;;;25.20;21.07;;;;;;;;;;5090538;28;20534;-74
2022/04/27 01:54:17;;;;;;;30.30;23.87;;;;;;;;;;5089767;28;20616;-76
2022/04/27 01:56:44;;;;;;;30.50;23.57;;;;;;;;;;5090149;28;20466;-75
2022/04/27 01:59:12;;;;;;;27.17;22.87;;;;;;;;;;5090190;28;20455;-75
2022/04/27 02:01:39;;;;;;;28.37;23.70;;;;;;;;;;5090137;28;20457;-75
2022/04/27 02:04:06;;;;;;;29.17;24.33;;;;;;;;;;5090076;28;20442;-76
2022/04/27 02:06:35;;;;;;;29.20;23.07;;;;;;;;;;5090147;28;20466;-76
2022/04/27 02:09:03;;;;;;;28.90;23.27;;;;;;;;;;5090757;28;20571;-77
2022/04/27 02:11:32;;;;;;;28.63;23.30;;;;;;;;;;5090075;28;20463;-75
2022/04/27 02:13:59;;;;;;;32.83;24.80;;;;;;;;;;5093903;28;20443;-75
2022/04/27 02:16:26;;;;;;;30.33;23.97;;;;;;;;;;5094259;28;20466;-76
2022/04/27 02:18:54;;;;;;;33.70;25.03;;;;;;;;;;5094298;28;20464;-74
2022/04/27 02:21:21;;;;;;;31.27;24.00;;;;;;;;;;5094219;28;21029;-76
2022/04/27 02:23:49;;;;;;;32.03;24.07;;;;;;;;;;5093862;28;20483;-75
2022/04/27 02:26:16;;;;;;;35.87;25.03;;;;;;;;;;5094607;28;20452;-76
2022/04/27 02:28:46;;;;;;;28.13;22.77;;;;;;;;;;5093801;28;20490;-76
2022/04/27 02:31:14;;;;;;;31.20;24.77;;;;;;;;;;5094635;28;20499;-74
2022/04/27 02:33:41;;;;;;;29.07;23.00;;;;;;;;;;5093814;28;20451;-76
2022/04/27 02:36:08;;;;;;;28.90;23.23;;;;;;;;;;5093643;28;20820;-75
2022/04/27 02:38:35;;;;;;;29.77;23.73;;;;;;;;;;5094029;28;20439;-75
2022/04/27 02:41:03;;;;;;;28.63;23.13;;;;;;;;;;5093405;28;20440;-75
2022/04/27 02:43:31;;;;;;;32.00;24.67;;;;;;;;;;5093010;28;20550;-76
2022/04/27 02:45:59;;;;;;;29.43;23.50;;;;;;;;;;5093838;28;20558;-76
2022/04/27 02:48:26;;;;;;;26.83;23.63;;;;;;;;;;5093444;28;20482;-76
2022/04/27 02:53:38;;;;;;;28.63;24.27;;;;;;;;;;5093069;28;20399;-74
2022/04/27 02:56:06;;;;;;;30.70;23.07;;;;;;;;;;5093010;28;20466;-77
2022/04/27 02:58:33;;;;;;;25.30;21.20;;;;;;;;;;5093298;28;20440;-76
2022/04/27 03:01:01;;;;;;;25.97;22.37;;;;;;;;;;5093554;28;20498;-74
2022/04/27 03:03:28;;;;;;;27.40;22.20;;;;;;;;;;5093483;28;20447;-76
2022/04/27 03:05:55;;;;;;;24.93;20.60;;;;;;;;;;5093308;28;20462;-74
2022/04/27 03:08:22;;;;;;;28.03;22.57;;;;;;;;;;5092957;28;20479;-76
2022/04/27 03:10:49;;;;;;;27.57;22.57;;;;;;;;;;5092930;28;20475;-76
2022/04/27 03:13:16;;;;;;;24.10;21.50;;;;;;;;;;5092910;28;20940;-78
2022/04/27 03:15:43;;;;;;;24.83;22.13;;;;;;;;;;5093046;28;20446;-78
2022/04/27 03:18:19;;;;;;;25.93;21.07;;;;;;;;;;5092694;28;21034;-75
2022/04/27 03:20:47;;;;;;;30.07;21.27;;;;;;;;;;5093022;28;20461;-75
2022/04/27 03:23:15;;;;;;;24.10;21.30;;;;;;;;;;5092250;28;20988;-75
2022/04/27 03:25:42;;;;;;;27.00;21.83;;;;;;;;;;5092564;28;20467;-73
2022/04/27 03:28:09;;;;;;;26.50;21.37;;;;;;;;;;5092882;28;20485;-75
2022/04/27 03:30:36;;;;;;;24.80;20.47;;;;;;;;;;5092892;28;20461;-75
2022/04/27 03:33:03;;;;;;;23.87;20.23;;;;;;;;;;5093167;28;20451;-77
2022/04/27 03:35:32;;;;;;;24.73;21.60;;;;;;;;;;5094174;28;20475;-76
2022/04/27 03:37:59;;;;;;;24.73;20.20;;;;;;;;;;5096793;28;20451;-77
2022/04/27 03:40:26;;;;;;;22.97;20.33;;;;;;;;;;5086222;28;20601;-75
2022/04/27 03:42:54;;;;;;;25.10;21.50;;;;;;;;;;5094811;28;20457;-75
2022/04/27 03:45:21;;;;;;;21.50;19.30;;;;;;;;;;5101484;28;20452;-74
2022/04/27 03:47:49;;;;;;;22.53;20.03;;;;;;;;;;5101617;28;20948;-75
2022/04/27 03:50:16;;;;;;;24.23;20.87;;;;;;;;;;5100069;28;20529;-75
2022/04/27 03:52:45;;;;;;;24.50;20.37;;;;;;;;;;5100610;28;20448;-77
2022/04/27 03:55:12;;;;;;;22.07;19.70;;;;;;;;;;5099822;28;20442;-76
2022/04/27 03:57:39;;;;;;;22.57;19.47;;;;;;;;;;5102603;28;20514;-75
2022/04/27 04:00:09;;;;;;;23.07;20.10;;;;;;;;;;5092557;28;20442;-77
2022/04/27 04:02:38;;;;;;;23.40;20.10;;;;;;;;;;5100302;28;20454;-76
2022/04/27 04:05:05;;;;;;;23.80;19.77;;;;;;;;;;5103841;28;20963;-75
2022/04/27 04:07:34;;;;;;;25.57;20.70;;;;;;;;;;5103872;28;20785;-76
2022/04/27 04:10:05;;;;;;;21.77;19.00;;;;;;;;;;5100485;28;20497;-75
2022/04/27 04:12:32;;;;;;;23.53;19.40;;;;;;;;;;5096883;28;20473;-74
2022/04/27 04:14:59;;;;;;;23.37;19.37;;;;;;;;;;5097214;28;20477;-76
2022/04/27 04:17:26;;;;;;;25.00;20.60;;;;;;;;;;5095292;28;20478;-76
2022/04/27 04:19:53;;;;;;;22.90;19.80;;;;;;;;;;5091612;28;20443;-76
2022/04/27 04:22:28;;;;;;;23.00;19.93;;;;;;;;;;5102214;28;20447;-76
2022/04/27 04:30:22;;;;;;;21.60;19.30;;;;;;;;;;5084346;28;20442;-75
2022/04/27 04:32:49;;;;;;;22.83;20.33;;;;;;;;;;5091169;28;20439;-75
2022/04/27 04:35:16;;;;;;;22.77;19.30;;;;;;;;;;5090356;28;20455;-77
2022/04/27 04:37:43;;;;;;;22.00;19.70;;;;;;;;;;5087712;28;20924;-76
2022/04/27 04:40:11;;;;;;;23.47;19.70;;;;;;;;;;5082908;28;20447;-75
2022/04/27 04:42:39;;;;;;;21.80;18.80;;;;;;;;;;5083955;28;20460;-75
2022/04/27 04:45:07;;;;;;;21.87;19.57;;;;;;;;;;5080326;28;20931;-75
2022/04/27 04:47:34;;;;;;;21.73;19.43;;;;;;;;;;5070966;28;20828;-76
2022/04/27 04:50:01;;;;;;;24.80;19.97;;;;;;;;;;5071300;28;20488;-76
2022/04/27 04:52:28;;;;;;;23.70;20.93;;;;;;;;;;5071323;28;20452;-76
2022/04/27 04:54:55;;;;;;;23.63;20.03;;;;;;;;;;5071009;28;20448;-75
2022/04/27 04:57:22;;;;;;;24.33;20.50;;;;;;;;;;5071370;28;20987;-77
2022/04/27 04:59:51;;;;;;;24.70;21.10;;;;;;;;;;5070589;28;20448;-77
2022/04/27 05:02:18;;;;;;;27.93;21.97;;;;;;;;;;5070903;28;20455;-76
2022/04/27 05:04:46;;;;;;;26.83;21.97;;;;;;;;;;5071938;28;20475;-75
2022/04/27 05:07:13;;;;;;;27.77;22.57;;;;;;;;;;5086919;28;20492;-74
2022/04/27 05:09:40;;;;;;;27.87;22.50;;;;;;;;;;5091048;28;20508;-77
2022/04/27 05:12:07;;;;;;;29.50;23.60;;;;;;;;;;5090515;28;20450;-77
2022/04/27 05:14:34;;;;;;;29.20;23.10;;;;;;;;;;5090102;28;20448;-76
2022/04/27 05:17:03;;;;;;;28.73;24.43;;;;;;;;;;5090197;28;20472;-76
2022/04/27 05:19:30;;;;;;;25.97;22.53;;;;;;;;;;5090330;28;20455;-76
2022/04/27 05:21:57;;;;;;;24.47;21.47;;;;;;;;;;5090483;28;20447;-74
2022/04/27 05:24:24;;;;;;;25.30;22.60;;;;;;;;;;5090633;28;20457;-75
2022/04/27 05:26:51;;;;;;;30.13;24.30;;;;;;;;;;5091240;28;20470;-76
2022/04/27 05:32:05;;;;;;;27.20;22.10;;;;;;;;;;5090198;28;20955;-77
2022/04/27 05:34:33;;;;;;;27.97;24.57;;;;;;;;;;5090353;28;20455;-76
2022/04/27 05:37:00;;;;;;;30.03;22.87;;;;;;;;;;5090842;28;20474;-75
2022/04/27 05:39:27;;;;;;;26.50;23.10;;;;;;;;;;5092334;28;20443;-74
2022/04/27 05:41:54;;;;;;;26.60;22.53;;;;;;;;;;5090922;28;20439;-76
2022/04/27 05:44:22;;;;;;;28.50;23.80;;;;;;;;;;5090443;28;20440;-77
2022/04/27 05:46:49;;;;;;;28.03;22.10;;;;;;;;;;5090071;28;20552;-74
2022/04/27 05:49:18;;;;;;;26.87;22.30;;;;;;;;;;5090929;28;20473;-76
2022/04/27 05:51:45;;;;;;;29.47;22.83;;;;;;;;;;5090409;28;20446;-75
2022/04/27 05:54:13;;;;;;;27.47;22.20;;;;;;;;;;5089982;28;20469;-77
2022/04/27 05:56:41;;;;;;;30.93;23.23;;;;;;;;;;5089908;28;20475;-76
2022/04/27 05:59:08;;;;;;;27.77;22.17;;;;;;;;;;5090107;28;20446;-75
2022/04/27 06:01:35;;;;;;;26.70;21.07;;;;;;;;;;5089578;28;20450;-76
2022/04/27 06:04:02;;;;;;;24.37;20.33;;;;;;;;;;5089732;28;20439;-76
2022/04/27 06:06:31;;;;;;;24.53;21.93;;;;;;;;;;5089600;28;20498;-76
2022/04/27 06:08:58;;;;;;;29.23;23.00;;;;;;;;;;5089788;28;20528;-77
2022/04/27 06:11:25;;;;;;;27.47;22.50;;;;;;;;;;5089976;28;20458;-75
2022/04/27 06:13:52;;;;;;;27.30;22.53;;;;;;;;;;5090344;28;20485;-75
2022/04/27 06:16:22;;;;;;;25.57;22.77;;;;;;;;;;5086905;28;20474;-77
2022/04/27 06:18:49;;;;;;;23.97;20.60;;;;;;;;;;5082478;28;20471;-76
2022/04/27 06:21:17;;;;;;;27.07;20.93;;;;;;;;;;5079670;28;20454;-76
2022/04/27 06:23:45;;;;;;;25.47;20.93;;;;;;;;;;5090156;28;20959;-74
2022/04/27 06:26:14;;;;;;;22.73;20.33;;;;;;;;;;5090392;28;20495;-76
2022/04/27 06:28:41;;;;;;;25.47;22.77;;;;;;;;;;5090212;28;20448;-75
2022/04/27 06:31:08;;;;;;;28.17;21.00;;;;;;;;;;5090306;28;20481;-76
2022/04/27 06:33:35;;;;;;;23.93;20.70;;;;;;;;;;5073568;28;20462;-76
2022/04/27 06:36:02;;;;;;;23.80;20.40;;;;;;;;;;5069727;28;20457;-76
2022/04/27 06:38:30;;;;;;;26.57;22.20;;;;;;;;;;5087543;28;20487;-77
2022/04/27 06:40:58;;;;;;;24.70;21.30;;;;;;;;;;5091422;28;20547;-75
2022/04/27 06:43:25;;;;;;;24.50;20.33;;;;;;;;;;5091527;28;20958;-74
2022/04/27 06:45:52;;;;;;;24.30;20.10;;;;;;;;;;5090514;28;20459;-77
2022/04/27 06:48:19;;;;;;;20.70;18.27;;;;;;;;;;5090598;28;20958;-76
2022/04/27 06:50:46;;;;;;;24.37;20.70;;;;;;;;;;5090478;28;20491;-77
2022/04/27 06:53:13;;;;;;;46.03;21.03;;;;;;;;;;5091258;28;20439;-76
2022/04/27 06:55:40;;;;;;;22.53;18.10;;;;;;;;;;5073769;28;20469;-75
2022/04/27 06:58:09;;;;;;;19.87;17.77;;;;;;;;;;5076825;28;20444;-76
2022/04/27 07:00:36;;;;;;;20.23;17.90;;;;;;;;;;5092935;28;20450;-76
2022/04/27 07:03:03;;;;;;;19.27;17.17;;;;;;;;;;5093046;28;20462;-76
2022/04/27 07:05:30;;;;;;;20.00;17.90;;;;;;;;;;5095389;28;20988;-76
2022/04/27 07:07:57;;;;;;;18.20;16.27;;;;;;;;;;5096360;28;20938;-74
2022/04/27 07:10:24;;;;;;;18.03;16.13;;;;;;;;;;5095926;28;20578;-76
2022/04/27 07:12:52;;;;;;;19.50;16.10;;;;;;;;;;5095307;28;20445;-75
2022/04/27 07:15:20;;;;;;;17.90;16.20;;;;;;;;;;5095733;28;20451;-76
2022/04/27 07:17:47;;;;;;;16.43;14.73;;;;;;;;;;5093435;28;20439;-74
2022/04/27 07:20:14;;;;;;;15.97;14.37;;;;;;;;;;5093700;28;20802;-76
2022/04/27 07:22:41;;;;;;;16.23;14.57;;;;;;;;;;5093138;28;20447;-74
2022/04/27 07:25:09;;;;;;;16.83;15.23;;;;;;;;;;5093550;28;20448;-73
2022/04/27 07:27:37;;;;;;;16.07;14.57;;;;;;;;;;5093738;28;20447;-75
2022/04/27 07:30:05;;;;;;;15.80;14.20;;;;;;;;;;5093029;28;20483;-76
2022/04/27 07:32:33;;;;;;;14.23;12.93;;;;;;;;;;5092982;28;20440;-76
2022/04/27 07:35:00;;;;;;;14.83;13.33;;;;;;;;;;5088707;28;20451;-74
2022/04/27 07:37:27;;;;;;;15.73;14.13;;;;;;;;;;5093193;28;20463;-76
2022/04/27 07:39:55;;;;;;;14.67;12.97;;;;;;;;;;5092608;28;20939;-76
2022/04/27 07:42:22;;;;;;;12.97;11.67;;;;;;;;;;5093566;28;20475;-77
2022/04/27 07:44:49;;;;;;;13.17;11.97;;;;;;;;;;5092705;28;21028;-74
2022/04/27 07:47:16;;;;;;;13.20;11.90;;;;;;;;;;5093184;28;20463;-76
2022/04/27 07:49:46;;;;;;;11.57;10.40;;;;;;;;;;5092933;28;20491;-77
2022/04/27 07:52:13;;;;;;;11.63;10.53;;;;;;;;;;5093700;28;20455;-77
2022/04/27 07:54:41;;;;;;;12.23;11.03;;;;;;;;;;5093918;28;20443;-74
2022/04/27 07:57:08;;;;;;;18.20;11.67;;;;;;;;;;5092563;28;20456;-76
2022/04/27 07:59:35;;;;;;;22.27;11.93;;;;;;;;;;5092542;28;20442;-77
2022/04/27 08:02:02;;;;;;;12.17;10.73;;;;;;;;;;5086346;28;20447;-75
2022/04/27 08:04:29;;;;;;;14.07;12.30;;;;;;;;;;5081932;28;20749;-76
2022/04/27 08:06:58;;;;;;;14.20;12.77;;;;;;;;;;5096129;28;20478;-77
2022/04/27 08:09:25;;;;;;;13.03;11.73;;;;;;;;;;5093616;28;20483;-76
2022/04/27 08:11:54;;;;;;;13.00;11.77;;;;;;;;;;5096365;28;20440;-76
2022/04/27 08:14:21;;;;;;;13.17;11.97;;;;;;;;;;5098450;28;20444;-77
2022/04/27 08:16:48;;;;;;;11.47;10.47;;;;;;;;;;5096410;28;20470;-76
2022/04/27 08:19:15;;;;;;;11.23;10.10;;;;;;;;;;5093763;28;20447;-76
2022/04/27 08:21:43;;;;;;;11.63;10.63;;;;;;;;;;5093740;28;20448;-76
2022/04/27 08:24:14;;;;;;;11.00;10.00;;;;;;;;;;5092184;28;20534;-75
2022/04/27 08:26:41;;;;;;;11.67;10.57;;;;;;;;;;5092360;28;20479;-76
2022/04/27 08:29:08;;;;;;;10.33;9.33;;;;;;;;;;5093336;28;20508;-76
2022/04/27 08:31:35;;;;;;;12.67;11.47;;;;;;;;;;5092351;28;20935;-76
2022/04/27 08:34:02;;;;;;;12.10;10.93;;;;;;;;;;5087219;28;20451;-77
2022/04/27 08:36:29;;;;;;;11.63;10.57;;;;;;;;;;5094726;28;20460;-76
2022/04/27 08:38:56;;;;;;;12.17;11.07;;;;;;;;;;5095717;28;20448;-77
2022/04/27 08:41:26;;;;;;;11.50;10.37;;;;;;;;;;5095735;28;20440;-77
2022/04/27 08:43:53;;;;;;;11.70;10.50;;;;;;;;;;5096266;28;20441;-77
2022/04/27 08:46:20;;;;;;;12.63;11.33;;;;;;;;;;5095054;28;20472;-77
2022/04/27 08:48:48;;;;;;;11.93;10.73;;;;;;;;;;5094359;28;20516;-76
2022/04/27 08:51:15;;;;;;;11.90;10.73;;;;;;;;;;5095213;28;20704;-77
2022/04/27 08:53:43;;;;;;;11.77;10.57;;;;;;;;;;5089713;28;20475;-77
2022/04/27 08:56:10;;;;;;;12.07;10.87;;;;;;;;;;5093415;28;20942;-79
2022/04/27 08:58:38;;;;;;;12.10;10.97;;;;;;;;;;5093176;28;20447;-77
2022/04/27 09:01:05;;;;;;;12.13;9.87;;;;;;;;;;5093722;28;21201;-76
2022/04/27 09:03:34;;;;;;;12.23;11.13;;;;;;;;;;5092690;28;20436;-77
2022/04/27 09:06:02;;;;;;;10.87;9.87;;;;;;;;;;5092746;28;21040;-75
2022/04/27 09:08:37;;;;;;;11.30;10.23;;;;;;;;;;5092146;28;20958;-78
2022/04/27 09:11:18;;;;;;;10.80;9.80;;;;;;;;;;5092066;28;20980;-78
2022/04/27 09:13:50;;;;;;;10.27;9.27;;;;;;;;;;5091704;28;20444;-75
2022/04/27 09:16:19;;;;;;;12.73;11.53;;;;;;;;;;5091606;28;20492;-75
2022/04/27 09:21:58;;;;;;;10.97;9.87;;;;;;;;;;5072708;28;20415;-77
2022/04/27 09:24:25;;;;;;;8.80;8.00;;;;;;;;;;5071506;28;20498;-76
2022/04/27 09:27:00;;;;;;;8.83;8.03;;;;;;;;;;5071725;28;20994;-76
2022/04/27 09:29:28;;;;;;;9.57;8.67;;;;;;;;;;5072433;28;20832;-76
2022/04/27 09:31:56;;;;;;;7.73;6.90;;;;;;;;;;5072937;28;20448;-77
2022/04/27 09:34:31;;;;;;;8.40;7.70;;;;;;;;;;5072507;28;20440;-77
2022/04/27 09:37:01;;;;;;;8.90;8.13;;;;;;;;;;5071701;28;20527;-77
2022/04/27 09:39:28;;;;;;;8.93;7.80;;;;;;;;;;5072162;28;20464;-76
2022/04/27 09:42:03;;;;;;;9.30;8.50;;;;;;;;;;5071803;28;20444;-78
2022/04/27 09:44:32;;;;;;;11.33;9.83;;;;;;;;;;5071365;28;20459;-77
2022/04/27 09:47:00;;;;;;;9.10;8.30;;;;;;;;;;5072514;28;20460;-76
2022/04/27 09:49:28;;;;;;;8.73;7.97;;;;;;;;;;5071501;28;20535;-77
2022/04/27 09:51:56;;;;;;;8.60;6.87;;;;;;;;;;5075668;28;20452;-76
2022/04/27 09:54:24;;;;;;;8.63;7.93;;;;;;;;;;5073031;28;20518;-76
2022/04/27 09:56:54;;;;;;;7.57;6.97;;;;;;;;;;5072372;28;20468;-77
2022/04/27 09:59:26;;;;;;;7.00;6.40;;;;;;;;;;5072552;28;20962;-77
2022/04/27 10:01:55;;;;;;;7.27;6.67;;;;;;;;;;5072339;28;20455;-76
2022/04/27 10:04:24;;;;;;;10.30;7.70;;;;;;;;;;5071532;28;20448;-76
2022/04/27 10:06:51;;;;;;;6.80;6.20;;;;;;;;;;5082782;28;20482;-77
2022/04/27 10:09:18;;;;;;;8.00;7.30;;;;;;;;;;5092937;28;20455;-77
2022/04/27 10:11:46;;;;;;;6.97;6.37;;;;;;;;;;5092684;28;20476;-76
2022/04/27 10:14:13;;;;;;;6.03;5.53;;;;;;;;;;5092558;28;20486;-75
2022/04/27 10:16:40;;;;;;;7.67;6.97;;;;;;;;;;5092992;28;20448;-77
2022/04/27 10:19:12;;;;;;;7.37;6.77;;;;;;;;;;5091938;28;20922;-76
2022/04/27 10:21:43;;;;;;;6.80;6.30;;;;;;;;;;5091541;28;20526;-76
2022/04/27 10:24:10;;;;;;;5.97;5.30;;;;;;;;;;5090917;28;20536;-77
2022/04/27 10:26:37;;;;;;;4.73;4.33;;;;;;;;;;5092331;28;20692;-75
2022/04/27 10:29:05;;;;;;;4.73;4.37;;;;;;;;;;5091033;28;20455;-77
2022/04/27 10:31:51;;;;;;;4.70;4.40;;;;;;;;;;5090547;28;20900;-77
2022/04/27 10:34:23;;;;;;;4.20;3.90;;;;;;;;;;5091912;28;20440;-76
2022/04/27 10:36:51;;;;;;;5.87;5.47;;;;;;;;;;5094688;28;20464;-77
2022/04/27 10:39:19;;;;;;;4.97;4.60;;;;;;;;;;5094869;28;20649;-77
2022/04/27 10:41:50;;;;;;;5.07;4.67;;;;;;;;;;5095159;28;20443;-77
2022/04/27 10:44:17;;;;;;;5.00;4.60;;;;;;;;;;5094212;28;20534;-76
2022/04/27 10:46:45;;;;;;;4.53;4.23;;;;;;;;;;5094408;28;20864;-77
2022/04/27 10:49:23;;;;;;;4.80;4.50;;;;;;;;;;5094739;28;20945;-77
2022/04/27 10:52:00;;;;;;;4.63;4.33;;;;;;;;;;5094080;28;20848;-77
2022/04/27 10:54:28;;;;;;;4.30;4.00;;;;;;;;;;5094235;28;20431;-76
2022/04/27 10:56:55;;;;;;;5.53;5.13;;;;;;;;;;5094534;28;20838;-76
2022/04/27 10:59:44;;;;;;;4.57;4.27;;;;;;;;;;5094635;28;20444;-77
2022/04/27 11:02:26;;;;;;;5.53;5.13;;;;;;;;;;5094905;28;20530;-76
2022/04/27 11:04:54;;;;;;;5.60;4.97;;;;;;;;;;5094093;28;20442;-76
2022/04/27 11:07:27;;;;;;;5.70;5.30;;;;;;;;;;5096296;28;20455;-77
2022/04/27 11:10:10;;;;;;;6.20;5.70;;;;;;;;;;5094259;28;20475;-75
2022/04/27 11:12:38;;;;;;;5.60;5.20;;;;;;;;;;5093410;28;20650;-76
2022/04/27 11:15:05;;;;;;;5.80;5.40;;;;;;;;;;5093283;28;20642;-78
2022/04/27 11:17:34;;;;;;;5.17;4.87;;;;;;;;;;5093793;28;20467;-76
2022/04/27 11:20:03;;;;;;;5.63;5.23;;;;;;;;;;5093945;28;20845;-77
2022/04/27 11:22:37;;;;;;;5.50;5.00;;;;;;;;;;5093222;28;20807;-78
2022/04/27 11:25:06;;;;;;;6.20;5.63;;;;;;;;;;5093178;28;20452;-76
2022/04/27 11:27:34;;;;;;;6.20;5.70;;;;;;;;;;5093372;28;20476;-77
2022/04/27 11:30:02;;;;;;;6.33;5.93;;;;;;;;;;5093613;28;20478;-76
2022/04/27 11:32:29;;;;;;;6.13;5.73;;;;;;;;;;5094024;28;20497;-75
2022/04/27 11:34:56;;;;;;;6.70;5.50;;;;;;;;;;5094684;28;20444;-77
2022/04/27 11:37:24;;;;;;;6.20;5.70;;;;;;;;;;5092900;28;21002;-78
2022/04/27 11:39:53;;;;;;;8.13;5.70;;;;;;;;;;5094304;28;20451;-77
2022/04/27 11:42:20;;;;;;;7.43;6.73;;;;;;;;;;5094394;28;20444;-76
2022/04/27 11:44:58;;;;;;;5.97;5.50;;;;;;;;;;5093423;28;20815;-77
2022/04/27 11:47:29;;;;;;;5.67;5.17;;;;;;;;;;5094660;28;20476;-76
2022/04/27 11:49:57;;;;;;;5.90;5.50;;;;;;;;;;5095398;28;20444;-75
2022/04/27 11:52:25;;;;;;;6.30;5.80;;;;;;;;;;5093183;28;20479;-76
2022/04/27 11:54:52;;;;;;;5.80;5.40;;;;;;;;;;5093764;28;20451;-77
2022/04/27 11:57:23;;;;;;;6.20;5.80;;;;;;;;;;5093542;28;20467;-76
2022/04/27 11:59:51;;;;;;;6.20;5.70;;;;;;;;;;5092035;28;20927;-76
2022/04/27 12:02:22;;;;;;;5.90;5.30;;;;;;;;;;5092365;28;20451;-77
2022/04/27 12:04:49;;;;;;;5.50;5.00;;;;;;;;;;5092895;28;20479;-76
2022/04/27 12:07:17;;;;;;;4.93;4.63;;;;;;;;;;5092304;28;21036;-75
2022/04/27 12:09:58;;;;;;;7.13;6.47;;;;;;;;;;5093127;28;20459;-77
2022/04/27 12:12:25;;;;;;;6.00;5.50;;;;;;;;;;5091633;28;20483;-77
2022/04/27 12:14:53;;;;;;;5.80;5.30;;;;;;;;;;5091734;28;20778;-76
2022/04/27 12:17:38;;;;;;;6.00;5.40;;;;;;;;;;5091923;28;20466;-76
2022/04/27 12:20:06;;;;;;;5.83;5.43;;;;;;;;;;5092087;28;20447;-76
2022/04/27 12:22:33;;;;;;;5.80;5.20;;;;;;;;;;5091791;28;20989;-76
2022/04/27 12:25:05;;;;;;;6.13;5.63;;;;;;;;;;5092005;28;20792;-76
2022/04/27 12:27:32;;;;;;;6.13;5.63;;;;;;;;;;5091604;28;20452;-76
2022/04/27 12:30:05;;;;;;;6.10;5.67;;;;;;;;;;5091934;28;20440;-76
2022/04/27 12:32:32;;;;;;;5.67;4.80;;;;;;;;;;5091887;28;20507;-78
2022/04/27 12:37:50;;;;;;;4.80;4.50;;;;;;;;;;5091814;28;20415;-77
2022/04/27 12:40:19;;;;;;;6.30;5.90;;;;;;;;;;5091758;28;20845;-77
2022/04/27 12:43:02;;;;;;;7.17;6.47;;;;;;;;;;5091305;28;20447;-76
2022/04/27 12:45:29;;;;;;;4.93;4.63;;;;;;;;;;5091071;28;20444;-77
2022/04/27 12:47:56;;;;;;;5.20;4.90;;;;;;;;;;5091170;28;20467;-76
2022/04/27 12:50:24;;;;;;;5.50;5.00;;;;;;;;;;5091530;28;20720;-76
2022/04/27 12:52:51;;;;;;;5.30;4.80;;;;;;;;;;5091518;28;20773;-76
2022/04/27 12:55:21;;;;;;;5.53;5.03;;;;;;;;;;5091936;28;20450;-76
2022/04/27 12:57:48;;;;;;;6.03;5.63;;;;;;;;;;5090963;28;20436;-77
2022/04/27 13:00:17;;;;;;;6.73;5.13;;;;;;;;;;5091229;28;20585;-76
2022/04/27 13:02:44;;;;;;;5.20;4.80;;;;;;;;;;5091081;28;20965;-76
2022/04/27 13:05:12;;;;;;;5.40;4.90;;;;;;;;;;5091094;28;20521;-77
2022/04/27 13:07:40;;;;;;;5.63;5.23;;;;;;;;;;5091197;28;20783;-76
2022/04/27 13:12:54;;;;;;;5.70;5.30;;;;;;;;;;5090686;28;20486;-76
2022/04/27 13:15:22;;;;;;;5.83;5.33;;;;;;;;;;5090747;28;20444;-76
2022/04/27 13:17:50;;;;;;;5.07;4.67;;;;;;;;;;5091031;28;20448;-77
2022/04/27 13:20:17;;;;;;;5.43;5.13;;;;;;;;;;5091016;28;20534;-76
2022/04/27 13:22:44;;;;;;;5.57;5.17;;;;;;;;;;5091211;28;20817;-78
2022/04/27 13:25:11;;;;;;;5.00;4.60;;;;;;;;;;5091192;28;20443;-76
2022/04/27 13:27:39;;;;;;;5.03;4.73;;;;;;;;;;5090856;28;20511;-76
2022/04/27 13:30:08;;;;;;;5.57;5.07;;;;;;;;;;5091243;28;20497;-78
2022/04/27 13:32:35;;;;;;;5.70;5.20;;;;;;;;;;5090966;28;20808;-77
2022/04/27 13:35:03;;;;;;;5.43;5.03;;;;;;;;;;5091172;28;20464;-78
2022/04/27 13:37:30;;;;;;;5.50;5.10;;;;;;;;;;5090364;28;20464;-77
2022/04/27 13:39:57;;;;;;;5.73;5.33;;;;;;;;;;5090887;28;20444;-77
2022/04/27 13:42:24;;;;;;;5.97;5.57;;;;;;;;;;5090985;28;20478;-77
2022/04/27 13:44:51;;;;;;;6.40;6.00;;;;;;;;;;5091933;28;20554;-77
2022/04/27 13:47:20;;;;;;;5.50;5.20;;;;;;;;;;5098365;28;20476;-76
2022/04/27 13:49:48;;;;;;;6.37;5.80;;;;;;;;;;5098281;28;20451;-75
2022/04/27 13:52:15;;;;;;;6.47;5.97;;;;;;;;;;5097858;28;20505;-76
2022/04/27 13:54:42;;;;;;;6.37;5.87;;;;;;;;;;5097327;28;20604;-75
2022/04/27 13:57:09;;;;;;;6.10;5.60;;;;;;;;;;5091192;28;20464;-78
2022/04/27 13:59:36;;;;;;;6.60;6.00;;;;;;;;;;5090897;28;20436;-78
2022/04/27 14:02:05;;;;;;;6.80;5.70;;;;;;;;;;5090366;28;20493;-76
2022/04/27 14:04:33;;;;;;;6.47;5.97;;;;;;;;;;5089908;28;20451;-77
2022/04/27 14:07:00;;;;;;;5.70;5.40;;;;;;;;;;5090058;28;20972;-76
2022/04/27 14:09:27;;;;;;;6.17;5.57;;;;;;;;;;5090295;28;20452;-76
2022/04/27 14:14:39;;;;;;;5.97;5.53;;;;;;;;;;5089982;28;20414;-77
2022/04/27 14:19:52;;;;;;;6.77;6.30;;;;;;;;;;5091299;28;20929;-77
2022/04/27 14:22:20;;;;;;;6.40;5.80;;;;;;;;;;5090488;28;20447;-77
2022/04/27 14:24:47;;;;;;;6.20;5.80;;;;;;;;;;5090129;28;20462;-78
2022/04/27 14:27:15;;;;;;;6.00;5.60;;;;;;;;;;5090888;28;20475;-77
2022/04/27 14:29:42;;;;;;;10.77;9.87;;;;;;;;;;5090037;28;20525;-76
2022/04/27 14:32:09;;;;;;;5.53;5.17;;;;;;;;;;5090230;28;20492;-77
2022/04/27 14:34:36;;;;;;;6.20;5.70;;;;;;;;;;5090453;28;20755;-77
2022/04/27 14:37:05;;;;;;;6.57;6.17;;;;;;;;;;5091237;28;20864;-75
2022/04/27 14:39:32;;;;;;;6.20;5.70;;;;;;;;;;5095703;28;20447;-74
2022/04/27 14:42:00;;;;;;;6.00;5.60;;;;;;;;;;5090719;28;20947;-76
2022/04/27 14:44:27;;;;;;;5.83;5.43;;;;;;;;;;5090924;28;20447;-76
2022/04/27 14:46:56;;;;;;;6.20;5.70;;;;;;;;;;5094195;28;20474;-76
2022/04/27 14:49:23;;;;;;;5.90;5.40;;;;;;;;;;5097705;28;20447;-76
2022/04/27 14:51:50;;;;;;;6.13;5.73;;;;;;;;;;5099012;28;20479;-75
2022/04/27 14:54:19;;;;;;;6.40;5.80;;;;;;;;;;5093337;28;20476;-76
2022/04/27 14:56:46;;;;;;;6.23;5.63;;;;;;;;;;5093461;28;20463;-78